sensor_id;sensor_type;location;lat;lon;timestamp;P1;durP1;ratioP1;P2;durP2;ratioP2
11709;SDS011;5911;51.036;6.972;2022-12-10T00:01:21;31.10;;;21.87;;
11709;SDS011;5911;51.036;6.972;2022-12-10T00:03:50;30.40;;;19.93;;
11709;SDS011;5911;51.036;6.972;2022-12-10T00:06:19;32.60;;;21.37;;
11709;SDS011;5911;51.036;6.972;2022-12-10T00:08:51;28.57;;;20.73;;
11709;SDS011;5911;51.036;6.972;2022-12-10T00:11:19;33.33;;;21.23;;
11709;SDS011;5911;51.036;6.972;2022-12-10T00:13:49;31.77;;;22.10;;
11709;SDS011;5911;51.036;6.972;2022-12-10T00:16:18;31.57;;;21.13;;
11709;SDS011;5911;51.036;6.972;2022-12-10T00:18:47;28.87;;;19.27;;
11709;SDS011;5911;51.036;6.972;2022-12-10T00:21:17;31.47;;;19.87;;
11709;SDS011;5911;51.036;6.972;2022-12-10T00:23:52;31.57;;;20.50;;
11709;SDS011;5911;51.036;6.972;2022-12-10T00:26:21;28.07;;;18.93;;
11709;SDS011;5911;51.036;6.972;2022-12-10T00:28:51;29.17;;;20.40;;
11709;SDS011;5911;51.036;6.972;2022-12-10T00:31:20;28.67;;;19.73;;
11709;SDS011;5911;51.036;6.972;2022-12-10T00:33:52;30.20;;;19.17;;
11709;SDS011;5911;51.036;6.972;2022-12-10T00:36:21;30.73;;;20.47;;
11709;SDS011;5911;51.036;6.972;2022-12-10T00:38:52;29.77;;;19.50;;
11709;SDS011;5911;51.036;6.972;2022-12-10T00:41:21;27.47;;;19.07;;
11709;SDS011;5911;51.036;6.972;2022-12-10T00:43:48;29.80;;;19.97;;
11709;SDS011;5911;51.036;6.972;2022-12-10T00:46:16;27.50;;;18.87;;
11709;SDS011;5911;51.036;6.972;2022-12-10T00:48:45;29.90;;;19.57;;
11709;SDS011;5911;51.036;6.972;2022-12-10T00:51:14;26.87;;;18.87;;
11709;SDS011;5911;51.036;6.972;2022-12-10T00:53:43;28.23;;;19.27;;
11709;SDS011;5911;51.036;6.972;2022-12-10T00:56:13;28.70;;;19.57;;
11709;SDS011;5911;51.036;6.972;2022-12-10T00:58:42;27.10;;;18.77;;
11709;SDS011;5911;51.036;6.972;2022-12-10T01:01:11;28.83;;;19.63;;
11709;SDS011;5911;51.036;6.972;2022-12-10T01:03:41;27.47;;;18.70;;
11709;SDS011;5911;51.036;6.972;2022-12-10T01:06:12;27.80;;;19.10;;
11709;SDS011;5911;51.036;6.972;2022-12-10T01:08:41;27.97;;;19.27;;
11709;SDS011;5911;51.036;6.972;2022-12-10T01:11:09;26.00;;;17.50;;
11709;SDS011;5911;51.036;6.972;2022-12-10T01:13:39;24.90;;;16.97;;
11709;SDS011;5911;51.036;6.972;2022-12-10T01:16:12;26.33;;;17.47;;
11709;SDS011;5911;51.036;6.972;2022-12-10T01:18:42;26.83;;;18.27;;
11709;SDS011;5911;51.036;6.972;2022-12-10T01:21:11;27.27;;;18.57;;
11709;SDS011;5911;51.036;6.972;2022-12-10T01:23:41;23.50;;;16.53;;
11709;SDS011;5911;51.036;6.972;2022-12-10T01:26:10;27.63;;;18.80;;
11709;SDS011;5911;51.036;6.972;2022-12-10T01:28:41;28.57;;;18.90;;
11709;SDS011;5911;51.036;6.972;2022-12-10T01:31:10;26.77;;;17.80;;
11709;SDS011;5911;51.036;6.972;2022-12-10T01:33:40;26.33;;;17.10;;
11709;SDS011;5911;51.036;6.972;2022-12-10T01:36:09;29.17;;;18.97;;
11709;SDS011;5911;51.036;6.972;2022-12-10T01:38:38;25.60;;;18.00;;
11709;SDS011;5911;51.036;6.972;2022-12-10T01:41:08;24.70;;;17.30;;
11709;SDS011;5911;51.036;6.972;2022-12-10T01:43:52;25.20;;;17.87;;
11709;SDS011;5911;51.036;6.972;2022-12-10T01:46:22;26.67;;;18.20;;
11709;SDS011;5911;51.036;6.972;2022-12-10T01:48:51;26.33;;;18.47;;
11709;SDS011;5911;51.036;6.972;2022-12-10T01:51:19;25.70;;;16.07;;
11709;SDS011;5911;51.036;6.972;2022-12-10T01:53:47;29.23;;;18.63;;
11709;SDS011;5911;51.036;6.972;2022-12-10T01:56:15;28.80;;;18.20;;
11709;SDS011;5911;51.036;6.972;2022-12-10T01:58:46;24.33;;;17.13;;
11709;SDS011;5911;51.036;6.972;2022-12-10T02:01:19;23.30;;;16.30;;
11709;SDS011;5911;51.036;6.972;2022-12-10T02:03:56;26.73;;;16.97;;
11709;SDS011;5911;51.036;6.972;2022-12-10T02:06:33;27.90;;;18.57;;
11709;SDS011;5911;51.036;6.972;2022-12-10T02:09:12;26.03;;;17.33;;
11709;SDS011;5911;51.036;6.972;2022-12-10T02:11:49;27.90;;;17.83;;
11709;SDS011;5911;51.036;6.972;2022-12-10T02:14:30;29.00;;;18.23;;
11709;SDS011;5911;51.036;6.972;2022-12-10T02:17:07;24.80;;;16.77;;
11709;SDS011;5911;51.036;6.972;2022-12-10T02:19:47;25.17;;;17.73;;
11709;SDS011;5911;51.036;6.972;2022-12-10T02:22:25;26.60;;;18.00;;
11709;SDS011;5911;51.036;6.972;2022-12-10T02:24:57;26.53;;;17.03;;
11709;SDS011;5911;51.036;6.972;2022-12-10T02:27:28;25.57;;;17.50;;
11709;SDS011;5911;51.036;6.972;2022-12-10T02:30:05;26.17;;;18.07;;
11709;SDS011;5911;51.036;6.972;2022-12-10T02:32:35;24.63;;;17.73;;
11709;SDS011;5911;51.036;6.972;2022-12-10T02:35:08;26.40;;;16.90;;
11709;SDS011;5911;51.036;6.972;2022-12-10T02:37:40;25.53;;;17.40;;
11709;SDS011;5911;51.036;6.972;2022-12-10T02:40:13;29.70;;;19.30;;
11709;SDS011;5911;51.036;6.972;2022-12-10T02:42:50;25.10;;;16.80;;
11709;SDS011;5911;51.036;6.972;2022-12-10T02:45:21;26.57;;;18.07;;
11709;SDS011;5911;51.036;6.972;2022-12-10T02:47:53;26.53;;;18.53;;
11709;SDS011;5911;51.036;6.972;2022-12-10T02:50:30;28.50;;;18.47;;
11709;SDS011;5911;51.036;6.972;2022-12-10T02:52:58;27.97;;;18.53;;
11709;SDS011;5911;51.036;6.972;2022-12-10T02:55:26;24.07;;;17.00;;
11709;SDS011;5911;51.036;6.972;2022-12-10T02:58:02;26.33;;;17.30;;
11709;SDS011;5911;51.036;6.972;2022-12-10T03:00:46;28.33;;;18.13;;
11709;SDS011;5911;51.036;6.972;2022-12-10T03:03:24;27.23;;;17.70;;
11709;SDS011;5911;51.036;6.972;2022-12-10T03:06:03;26.77;;;18.10;;
11709;SDS011;5911;51.036;6.972;2022-12-10T03:08:39;26.93;;;17.57;;
11709;SDS011;5911;51.036;6.972;2022-12-10T03:11:13;27.27;;;16.97;;
11709;SDS011;5911;51.036;6.972;2022-12-10T03:13:45;27.93;;;18.67;;
11709;SDS011;5911;51.036;6.972;2022-12-10T03:16:21;29.20;;;18.70;;
11709;SDS011;5911;51.036;6.972;2022-12-10T03:18:52;25.90;;;17.50;;
11709;SDS011;5911;51.036;6.972;2022-12-10T03:21:23;26.87;;;17.83;;
11709;SDS011;5911;51.036;6.972;2022-12-10T03:23:53;28.43;;;18.77;;
11709;SDS011;5911;51.036;6.972;2022-12-10T03:26:22;29.37;;;19.30;;
11709;SDS011;5911;51.036;6.972;2022-12-10T03:28:51;28.27;;;17.57;;
11709;SDS011;5911;51.036;6.972;2022-12-10T03:31:24;29.90;;;18.47;;
11709;SDS011;5911;51.036;6.972;2022-12-10T03:33:52;27.53;;;18.20;;
11709;SDS011;5911;51.036;6.972;2022-12-10T03:36:23;28.37;;;19.20;;
11709;SDS011;5911;51.036;6.972;2022-12-10T03:38:52;27.80;;;18.07;;
11709;SDS011;5911;51.036;6.972;2022-12-10T03:41:20;31.73;;;19.23;;
11709;SDS011;5911;51.036;6.972;2022-12-10T03:43:51;28.43;;;19.10;;
11709;SDS011;5911;51.036;6.972;2022-12-10T03:46:20;29.20;;;18.67;;
11709;SDS011;5911;51.036;6.972;2022-12-10T03:48:50;31.50;;;20.63;;
11709;SDS011;5911;51.036;6.972;2022-12-10T03:51:18;29.93;;;18.83;;
11709;SDS011;5911;51.036;6.972;2022-12-10T03:53:46;31.73;;;20.20;;
11709;SDS011;5911;51.036;6.972;2022-12-10T03:56:15;31.10;;;19.57;;
11709;SDS011;5911;51.036;6.972;2022-12-10T03:58:44;30.10;;;20.00;;
11709;SDS011;5911;51.036;6.972;2022-12-10T04:01:12;31.37;;;20.60;;
11709;SDS011;5911;51.036;6.972;2022-12-10T04:03:40;29.30;;;19.00;;
11709;SDS011;5911;51.036;6.972;2022-12-10T04:06:13;33.10;;;19.50;;
11709;SDS011;5911;51.036;6.972;2022-12-10T04:08:42;34.03;;;20.40;;
11709;SDS011;5911;51.036;6.972;2022-12-10T04:11:10;30.70;;;19.97;;
11709;SDS011;5911;51.036;6.972;2022-12-10T04:13:39;33.40;;;21.17;;
11709;SDS011;5911;51.036;6.972;2022-12-10T04:16:25;31.37;;;21.07;;
11709;SDS011;5911;51.036;6.972;2022-12-10T04:18:54;36.00;;;22.27;;
11709;SDS011;5911;51.036;6.972;2022-12-10T04:21:28;30.90;;;19.73;;
11709;SDS011;5911;51.036;6.972;2022-12-10T04:24:15;33.47;;;20.50;;
11709;SDS011;5911;51.036;6.972;2022-12-10T04:27:03;31.27;;;20.40;;
11709;SDS011;5911;51.036;6.972;2022-12-10T04:29:33;31.07;;;20.53;;
11709;SDS011;5911;51.036;6.972;2022-12-10T04:32:01;33.13;;;20.13;;
11709;SDS011;5911;51.036;6.972;2022-12-10T04:34:29;33.50;;;20.17;;
11709;SDS011;5911;51.036;6.972;2022-12-10T04:36:58;31.43;;;20.97;;
11709;SDS011;5911;51.036;6.972;2022-12-10T04:39:27;31.80;;;21.00;;
11709;SDS011;5911;51.036;6.972;2022-12-10T04:41:55;29.73;;;19.73;;
11709;SDS011;5911;51.036;6.972;2022-12-10T04:44:23;30.43;;;20.63;;
11709;SDS011;5911;51.036;6.972;2022-12-10T04:46:51;30.90;;;20.40;;
11709;SDS011;5911;51.036;6.972;2022-12-10T04:49:19;32.57;;;21.17;;
11709;SDS011;5911;51.036;6.972;2022-12-10T04:51:48;30.57;;;19.83;;
11709;SDS011;5911;51.036;6.972;2022-12-10T04:54:17;32.50;;;20.70;;
11709;SDS011;5911;51.036;6.972;2022-12-10T04:56:45;35.40;;;20.60;;
11709;SDS011;5911;51.036;6.972;2022-12-10T04:59:14;31.33;;;19.83;;
11709;SDS011;5911;51.036;6.972;2022-12-10T05:01:42;32.07;;;21.37;;
11709;SDS011;5911;51.036;6.972;2022-12-10T05:04:11;30.97;;;20.30;;
11709;SDS011;5911;51.036;6.972;2022-12-10T05:06:41;32.73;;;21.37;;
11709;SDS011;5911;51.036;6.972;2022-12-10T05:09:09;33.27;;;21.57;;
11709;SDS011;5911;51.036;6.972;2022-12-10T05:11:39;34.03;;;21.90;;
11709;SDS011;5911;51.036;6.972;2022-12-10T05:14:08;31.57;;;19.73;;
11709;SDS011;5911;51.036;6.972;2022-12-10T05:16:37;36.03;;;22.13;;
11709;SDS011;5911;51.036;6.972;2022-12-10T05:19:05;32.33;;;21.60;;
11709;SDS011;5911;51.036;6.972;2022-12-10T05:21:33;32.80;;;20.97;;
11709;SDS011;5911;51.036;6.972;2022-12-10T05:24:18;34.97;;;22.27;;
11709;SDS011;5911;51.036;6.972;2022-12-10T05:26:47;34.17;;;22.10;;
11709;SDS011;5911;51.036;6.972;2022-12-10T05:29:18;35.63;;;22.80;;
11709;SDS011;5911;51.036;6.972;2022-12-10T05:31:46;34.10;;;21.10;;
11709;SDS011;5911;51.036;6.972;2022-12-10T05:34:14;30.40;;;19.17;;
11709;SDS011;5911;51.036;6.972;2022-12-10T05:36:42;34.77;;;21.87;;
11709;SDS011;5911;51.036;6.972;2022-12-10T05:39:09;41.20;;;22.43;;
11709;SDS011;5911;51.036;6.972;2022-12-10T05:41:38;32.17;;;20.40;;
11709;SDS011;5911;51.036;6.972;2022-12-10T05:44:09;36.10;;;22.73;;
11709;SDS011;5911;51.036;6.972;2022-12-10T05:46:37;35.53;;;22.00;;
11709;SDS011;5911;51.036;6.972;2022-12-10T05:49:06;35.27;;;22.53;;
11709;SDS011;5911;51.036;6.972;2022-12-10T05:51:35;37.20;;;23.40;;
11709;SDS011;5911;51.036;6.972;2022-12-10T05:54:05;37.53;;;22.60;;
11709;SDS011;5911;51.036;6.972;2022-12-10T05:56:36;34.93;;;21.87;;
11709;SDS011;5911;51.036;6.972;2022-12-10T05:59:04;37.03;;;21.93;;
11709;SDS011;5911;51.036;6.972;2022-12-10T06:01:42;33.53;;;21.87;;
11709;SDS011;5911;51.036;6.972;2022-12-10T06:04:10;33.57;;;21.70;;
11709;SDS011;5911;51.036;6.972;2022-12-10T06:06:39;37.27;;;23.20;;
11709;SDS011;5911;51.036;6.972;2022-12-10T06:09:07;38.60;;;23.77;;
11709;SDS011;5911;51.036;6.972;2022-12-10T06:11:38;34.63;;;22.63;;
11709;SDS011;5911;51.036;6.972;2022-12-10T06:14:06;35.20;;;22.67;;
11709;SDS011;5911;51.036;6.972;2022-12-10T06:16:34;35.70;;;23.10;;
11709;SDS011;5911;51.036;6.972;2022-12-10T06:19:03;36.13;;;23.80;;
11709;SDS011;5911;51.036;6.972;2022-12-10T06:21:31;37.20;;;23.03;;
11709;SDS011;5911;51.036;6.972;2022-12-10T06:24:00;36.53;;;22.90;;
11709;SDS011;5911;51.036;6.972;2022-12-10T06:26:28;37.53;;;21.90;;
11709;SDS011;5911;51.036;6.972;2022-12-10T06:28:55;32.03;;;21.47;;
11709;SDS011;5911;51.036;6.972;2022-12-10T06:31:23;34.47;;;21.73;;
11709;SDS011;5911;51.036;6.972;2022-12-10T06:33:51;32.77;;;22.07;;
11709;SDS011;5911;51.036;6.972;2022-12-10T06:36:20;33.73;;;21.97;;
11709;SDS011;5911;51.036;6.972;2022-12-10T06:38:48;35.87;;;22.87;;
11709;SDS011;5911;51.036;6.972;2022-12-10T06:41:16;38.27;;;22.60;;
11709;SDS011;5911;51.036;6.972;2022-12-10T06:43:46;36.30;;;22.13;;
11709;SDS011;5911;51.036;6.972;2022-12-10T06:46:16;34.03;;;22.50;;
11709;SDS011;5911;51.036;6.972;2022-12-10T06:48:45;36.93;;;22.23;;
11709;SDS011;5911;51.036;6.972;2022-12-10T06:51:13;36.20;;;22.67;;
11709;SDS011;5911;51.036;6.972;2022-12-10T06:53:43;37.60;;;23.47;;
11709;SDS011;5911;51.036;6.972;2022-12-10T06:56:12;35.43;;;23.03;;
11709;SDS011;5911;51.036;6.972;2022-12-10T06:58:42;35.93;;;22.17;;
11709;SDS011;5911;51.036;6.972;2022-12-10T07:01:10;36.27;;;22.93;;
11709;SDS011;5911;51.036;6.972;2022-12-10T07:03:40;39.37;;;24.30;;
11709;SDS011;5911;51.036;6.972;2022-12-10T07:06:09;33.33;;;22.07;;
11709;SDS011;5911;51.036;6.972;2022-12-10T07:08:38;35.67;;;22.47;;
11709;SDS011;5911;51.036;6.972;2022-12-10T07:11:07;36.03;;;22.80;;
11709;SDS011;5911;51.036;6.972;2022-12-10T07:13:37;35.33;;;23.03;;
11709;SDS011;5911;51.036;6.972;2022-12-10T07:16:11;33.80;;;21.53;;
11709;SDS011;5911;51.036;6.972;2022-12-10T07:18:40;36.87;;;23.57;;
11709;SDS011;5911;51.036;6.972;2022-12-10T07:21:16;36.90;;;23.70;;
11709;SDS011;5911;51.036;6.972;2022-12-10T07:23:46;35.43;;;22.67;;
11709;SDS011;5911;51.036;6.972;2022-12-10T07:26:15;38.00;;;24.10;;
11709;SDS011;5911;51.036;6.972;2022-12-10T07:28:43;33.23;;;20.87;;
11709;SDS011;5911;51.036;6.972;2022-12-10T07:31:18;37.93;;;23.17;;
11709;SDS011;5911;51.036;6.972;2022-12-10T07:33:46;35.67;;;21.13;;
11709;SDS011;5911;51.036;6.972;2022-12-10T07:36:14;37.63;;;24.20;;
11709;SDS011;5911;51.036;6.972;2022-12-10T07:38:42;33.77;;;21.33;;
11709;SDS011;5911;51.036;6.972;2022-12-10T07:41:11;38.83;;;21.87;;
11709;SDS011;5911;51.036;6.972;2022-12-10T07:43:41;37.87;;;23.30;;
11709;SDS011;5911;51.036;6.972;2022-12-10T07:46:11;38.07;;;22.90;;
11709;SDS011;5911;51.036;6.972;2022-12-10T07:48:41;37.90;;;21.73;;
11709;SDS011;5911;51.036;6.972;2022-12-10T07:51:10;35.60;;;22.03;;
11709;SDS011;5911;51.036;6.972;2022-12-10T07:53:38;42.03;;;24.20;;
11709;SDS011;5911;51.036;6.972;2022-12-10T07:56:06;40.20;;;23.93;;
11709;SDS011;5911;51.036;6.972;2022-12-10T07:58:34;36.60;;;22.30;;
11709;SDS011;5911;51.036;6.972;2022-12-10T08:01:07;35.83;;;21.47;;
11709;SDS011;5911;51.036;6.972;2022-12-10T08:03:35;36.67;;;22.37;;
11709;SDS011;5911;51.036;6.972;2022-12-10T08:06:04;35.60;;;22.43;;
11709;SDS011;5911;51.036;6.972;2022-12-10T08:08:34;34.53;;;21.23;;
11709;SDS011;5911;51.036;6.972;2022-12-10T08:11:03;38.60;;;22.33;;
11709;SDS011;5911;51.036;6.972;2022-12-10T08:13:32;35.90;;;23.03;;
11709;SDS011;5911;51.036;6.972;2022-12-10T08:16:01;35.73;;;21.13;;
11709;SDS011;5911;51.036;6.972;2022-12-10T08:18:31;40.00;;;23.57;;
11709;SDS011;5911;51.036;6.972;2022-12-10T08:21:02;34.33;;;21.63;;
11709;SDS011;5911;51.036;6.972;2022-12-10T08:23:31;40.07;;;24.67;;
11709;SDS011;5911;51.036;6.972;2022-12-10T08:26:01;47.83;;;28.97;;
11709;SDS011;5911;51.036;6.972;2022-12-10T08:28:30;48.40;;;26.70;;
11709;SDS011;5911;51.036;6.972;2022-12-10T08:30:58;52.23;;;30.40;;
11709;SDS011;5911;51.036;6.972;2022-12-10T08:33:26;52.57;;;30.57;;
11709;SDS011;5911;51.036;6.972;2022-12-10T08:35:57;48.57;;;31.13;;
11709;SDS011;5911;51.036;6.972;2022-12-10T08:38:28;56.37;;;31.13;;
11709;SDS011;5911;51.036;6.972;2022-12-10T08:40:56;51.17;;;29.63;;
11709;SDS011;5911;51.036;6.972;2022-12-10T08:43:24;54.83;;;31.53;;
11709;SDS011;5911;51.036;6.972;2022-12-10T08:45:52;57.70;;;33.17;;
11709;SDS011;5911;51.036;6.972;2022-12-10T08:48:21;57.67;;;32.77;;
11709;SDS011;5911;51.036;6.972;2022-12-10T08:50:50;64.63;;;33.93;;
11709;SDS011;5911;51.036;6.972;2022-12-10T08:53:19;54.67;;;32.70;;
11709;SDS011;5911;51.036;6.972;2022-12-10T08:55:48;55.87;;;32.33;;
11709;SDS011;5911;51.036;6.972;2022-12-10T08:58:16;59.57;;;32.93;;
11709;SDS011;5911;51.036;6.972;2022-12-10T09:00:44;56.00;;;32.17;;
11709;SDS011;5911;51.036;6.972;2022-12-10T09:03:12;58.77;;;33.27;;
11709;SDS011;5911;51.036;6.972;2022-12-10T09:05:40;58.70;;;32.57;;
11709;SDS011;5911;51.036;6.972;2022-12-10T09:08:08;61.00;;;34.47;;
11709;SDS011;5911;51.036;6.972;2022-12-10T09:10:37;57.60;;;32.67;;
11709;SDS011;5911;51.036;6.972;2022-12-10T09:13:05;64.70;;;35.27;;
11709;SDS011;5911;51.036;6.972;2022-12-10T09:15:34;63.20;;;35.17;;
11709;SDS011;5911;51.036;6.972;2022-12-10T09:18:02;60.17;;;34.27;;
11709;SDS011;5911;51.036;6.972;2022-12-10T09:20:30;64.77;;;34.93;;
11709;SDS011;5911;51.036;6.972;2022-12-10T09:22:58;64.80;;;34.87;;
11709;SDS011;5911;51.036;6.972;2022-12-10T09:25:26;65.43;;;35.53;;
11709;SDS011;5911;51.036;6.972;2022-12-10T09:27:55;67.03;;;34.63;;
11709;SDS011;5911;51.036;6.972;2022-12-10T09:30:22;64.97;;;36.33;;
11709;SDS011;5911;51.036;6.972;2022-12-10T09:32:50;65.60;;;36.17;;
11709;SDS011;5911;51.036;6.972;2022-12-10T09:35:18;62.43;;;35.30;;
11709;SDS011;5911;51.036;6.972;2022-12-10T09:37:46;68.30;;;35.90;;
11709;SDS011;5911;51.036;6.972;2022-12-10T09:40:14;65.23;;;34.70;;
11709;SDS011;5911;51.036;6.972;2022-12-10T09:42:45;67.73;;;36.67;;
11709;SDS011;5911;51.036;6.972;2022-12-10T09:45:20;63.90;;;33.20;;
11709;SDS011;5911;51.036;6.972;2022-12-10T09:47:58;67.70;;;36.23;;
11709;SDS011;5911;51.036;6.972;2022-12-10T09:50:33;69.53;;;36.43;;
11709;SDS011;5911;51.036;6.972;2022-12-10T09:53:07;57.17;;;32.27;;
11709;SDS011;5911;51.036;6.972;2022-12-10T09:55:40;61.97;;;34.87;;
11709;SDS011;5911;51.036;6.972;2022-12-10T09:58:13;69.03;;;36.87;;
11709;SDS011;5911;51.036;6.972;2022-12-10T10:00:49;71.03;;;36.83;;
11709;SDS011;5911;51.036;6.972;2022-12-10T10:03:21;65.27;;;35.17;;
11709;SDS011;5911;51.036;6.972;2022-12-10T10:05:49;62.50;;;34.30;;
11709;SDS011;5911;51.036;6.972;2022-12-10T10:08:23;61.43;;;33.80;;
11709;SDS011;5911;51.036;6.972;2022-12-10T10:10:55;58.07;;;33.23;;
11709;SDS011;5911;51.036;6.972;2022-12-10T10:13:26;62.90;;;35.63;;
11709;SDS011;5911;51.036;6.972;2022-12-10T10:16:04;62.40;;;34.70;;
11709;SDS011;5911;51.036;6.972;2022-12-10T10:18:48;58.93;;;32.37;;
11709;SDS011;5911;51.036;6.972;2022-12-10T10:21:22;59.53;;;33.07;;
11709;SDS011;5911;51.036;6.972;2022-12-10T10:23:55;54.67;;;28.90;;
11709;SDS011;5911;51.036;6.972;2022-12-10T10:26:24;58.17;;;32.17;;
11709;SDS011;5911;51.036;6.972;2022-12-10T10:28:56;58.03;;;32.40;;
11709;SDS011;5911;51.036;6.972;2022-12-10T10:31:30;61.40;;;33.03;;
11709;SDS011;5911;51.036;6.972;2022-12-10T10:34:00;60.30;;;33.43;;
11709;SDS011;5911;51.036;6.972;2022-12-10T10:36:30;58.17;;;32.40;;
11709;SDS011;5911;51.036;6.972;2022-12-10T10:39:07;52.97;;;30.13;;
11709;SDS011;5911;51.036;6.972;2022-12-10T10:41:45;50.67;;;31.13;;
11709;SDS011;5911;51.036;6.972;2022-12-10T10:44:25;52.77;;;30.87;;
11709;SDS011;5911;51.036;6.972;2022-12-10T10:46:56;48.83;;;28.93;;
11709;SDS011;5911;51.036;6.972;2022-12-10T10:49:24;54.87;;;30.80;;
11709;SDS011;5911;51.036;6.972;2022-12-10T10:52:00;57.13;;;31.87;;
11709;SDS011;5911;51.036;6.972;2022-12-10T10:54:34;54.37;;;31.77;;
11709;SDS011;5911;51.036;6.972;2022-12-10T10:57:10;62.20;;;32.27;;
11709;SDS011;5911;51.036;6.972;2022-12-10T10:59:41;55.90;;;32.13;;
11709;SDS011;5911;51.036;6.972;2022-12-10T11:02:17;54.20;;;31.43;;
11709;SDS011;5911;51.036;6.972;2022-12-10T11:04:49;55.67;;;31.67;;
11709;SDS011;5911;51.036;6.972;2022-12-10T11:07:20;56.60;;;31.27;;
11709;SDS011;5911;51.036;6.972;2022-12-10T11:09:52;53.40;;;30.57;;
11709;SDS011;5911;51.036;6.972;2022-12-10T11:12:33;52.33;;;31.10;;
11709;SDS011;5911;51.036;6.972;2022-12-10T11:15:24;51.13;;;30.13;;
11709;SDS011;5911;51.036;6.972;2022-12-10T11:17:58;53.83;;;31.33;;
11709;SDS011;5911;51.036;6.972;2022-12-10T11:20:27;60.03;;;32.73;;
11709;SDS011;5911;51.036;6.972;2022-12-10T11:22:57;59.77;;;31.60;;
11709;SDS011;5911;51.036;6.972;2022-12-10T11:25:30;54.07;;;29.83;;
11709;SDS011;5911;51.036;6.972;2022-12-10T11:28:07;51.73;;;31.03;;
11709;SDS011;5911;51.036;6.972;2022-12-10T11:30:56;53.17;;;30.30;;
11709;SDS011;5911;51.036;6.972;2022-12-10T11:33:41;51.17;;;30.13;;
11709;SDS011;5911;51.036;6.972;2022-12-10T11:36:22;54.20;;;30.77;;
11709;SDS011;5911;51.036;6.972;2022-12-10T11:39:01;52.27;;;31.37;;
11709;SDS011;5911;51.036;6.972;2022-12-10T11:41:39;50.30;;;29.70;;
11709;SDS011;5911;51.036;6.972;2022-12-10T11:44:16;53.90;;;30.70;;
11709;SDS011;5911;51.036;6.972;2022-12-10T11:46:56;51.17;;;30.13;;
11709;SDS011;5911;51.036;6.972;2022-12-10T11:49:35;49.17;;;29.17;;
11709;SDS011;5911;51.036;6.972;2022-12-10T11:52:10;48.60;;;28.63;;
11709;SDS011;5911;51.036;6.972;2022-12-10T11:54:53;50.07;;;29.07;;
11709;SDS011;5911;51.036;6.972;2022-12-10T11:57:39;53.40;;;31.40;;
11709;SDS011;5911;51.036;6.972;2022-12-10T12:00:15;52.57;;;30.27;;
11709;SDS011;5911;51.036;6.972;2022-12-10T12:02:55;56.23;;;31.33;;
11709;SDS011;5911;51.036;6.972;2022-12-10T12:05:43;54.73;;;30.93;;
11709;SDS011;5911;51.036;6.972;2022-12-10T12:08:23;53.77;;;30.30;;
11709;SDS011;5911;51.036;6.972;2022-12-10T12:11:11;54.83;;;31.23;;
11709;SDS011;5911;51.036;6.972;2022-12-10T12:13:51;52.87;;;30.37;;
11709;SDS011;5911;51.036;6.972;2022-12-10T12:16:24;51.33;;;29.17;;
11709;SDS011;5911;51.036;6.972;2022-12-10T12:18:55;43.97;;;26.53;;
11709;SDS011;5911;51.036;6.972;2022-12-10T12:21:31;43.67;;;26.13;;
11709;SDS011;5911;51.036;6.972;2022-12-10T12:24:20;45.07;;;26.97;;
11709;SDS011;5911;51.036;6.972;2022-12-10T12:26:57;39.73;;;23.87;;
11709;SDS011;5911;51.036;6.972;2022-12-10T12:29:30;41.70;;;24.20;;
11709;SDS011;5911;51.036;6.972;2022-12-10T12:32:04;37.67;;;22.57;;
11709;SDS011;5911;51.036;6.972;2022-12-10T12:34:42;33.90;;;20.83;;
11709;SDS011;5911;51.036;6.972;2022-12-10T12:37:17;35.87;;;22.77;;
11709;SDS011;5911;51.036;6.972;2022-12-10T12:39:50;32.37;;;18.73;;
11709;SDS011;5911;51.036;6.972;2022-12-10T12:42:27;26.80;;;17.53;;
11709;SDS011;5911;51.036;6.972;2022-12-10T12:45:03;25.23;;;17.10;;
11709;SDS011;5911;51.036;6.972;2022-12-10T12:47:39;29.43;;;18.43;;
11709;SDS011;5911;51.036;6.972;2022-12-10T12:50:16;30.33;;;19.70;;
11709;SDS011;5911;51.036;6.972;2022-12-10T12:52:53;35.27;;;21.87;;
11709;SDS011;5911;51.036;6.972;2022-12-10T12:55:27;39.87;;;21.57;;
11709;SDS011;5911;51.036;6.972;2022-12-10T12:58:12;32.20;;;20.87;;
11709;SDS011;5911;51.036;6.972;2022-12-10T13:00:53;33.37;;;20.60;;
11709;SDS011;5911;51.036;6.972;2022-12-10T13:03:29;39.23;;;23.27;;
11709;SDS011;5911;51.036;6.972;2022-12-10T13:06:12;32.93;;;19.97;;
11709;SDS011;5911;51.036;6.972;2022-12-10T13:08:47;38.57;;;22.77;;
11709;SDS011;5911;51.036;6.972;2022-12-10T13:11:18;43.97;;;23.37;;
11709;SDS011;5911;51.036;6.972;2022-12-10T13:17:07;39.43;;;23.83;;
11709;SDS011;5911;51.036;6.972;2022-12-10T13:23:03;41.17;;;25.03;;
11709;SDS011;5911;51.036;6.972;2022-12-10T13:25:54;42.80;;;23.07;;
11709;SDS011;5911;51.036;6.972;2022-12-10T13:28:30;41.90;;;23.60;;
11709;SDS011;5911;51.036;6.972;2022-12-10T13:31:06;39.43;;;22.63;;
11709;SDS011;5911;51.036;6.972;2022-12-10T13:33:50;45.10;;;26.37;;
11709;SDS011;5911;51.036;6.972;2022-12-10T13:36:20;39.37;;;23.83;;
11709;SDS011;5911;51.036;6.972;2022-12-10T13:38:56;42.10;;;25.83;;
11709;SDS011;5911;51.036;6.972;2022-12-10T13:45:29;40.47;;;25.67;;
11709;SDS011;5911;51.036;6.972;2022-12-10T13:51:04;36.20;;;22.20;;
11709;SDS011;5911;51.036;6.972;2022-12-10T13:53:43;35.80;;;22.60;;
11709;SDS011;5911;51.036;6.972;2022-12-10T13:56:22;34.97;;;23.13;;
11709;SDS011;5911;51.036;6.972;2022-12-10T13:59:03;36.57;;;23.10;;
11709;SDS011;5911;51.036;6.972;2022-12-10T14:01:48;38.23;;;22.13;;
11709;SDS011;5911;51.036;6.972;2022-12-10T14:04:37;34.60;;;21.43;;
11709;SDS011;5911;51.036;6.972;2022-12-10T14:07:16;38.43;;;22.13;;
11709;SDS011;5911;51.036;6.972;2022-12-10T14:09:46;37.60;;;21.70;;
11709;SDS011;5911;51.036;6.972;2022-12-10T14:12:18;37.80;;;22.40;;
11709;SDS011;5911;51.036;6.972;2022-12-10T14:14:55;33.27;;;20.97;;
11709;SDS011;5911;51.036;6.972;2022-12-10T14:17:29;37.57;;;21.43;;
11709;SDS011;5911;51.036;6.972;2022-12-10T14:20:02;33.80;;;20.80;;
11709;SDS011;5911;51.036;6.972;2022-12-10T14:22:33;36.80;;;21.77;;
11709;SDS011;5911;51.036;6.972;2022-12-10T14:25:05;34.97;;;21.43;;
11709;SDS011;5911;51.036;6.972;2022-12-10T14:27:38;33.90;;;22.07;;
11709;SDS011;5911;51.036;6.972;2022-12-10T14:30:15;39.00;;;24.27;;
11709;SDS011;5911;51.036;6.972;2022-12-10T14:32:44;39.07;;;24.77;;
11709;SDS011;5911;51.036;6.972;2022-12-10T14:35:14;41.90;;;24.53;;
11709;SDS011;5911;51.036;6.972;2022-12-10T14:37:50;36.67;;;23.17;;
11709;SDS011;5911;51.036;6.972;2022-12-10T14:40:22;35.33;;;23.10;;
11709;SDS011;5911;51.036;6.972;2022-12-10T14:42:52;36.27;;;22.47;;
11709;SDS011;5911;51.036;6.972;2022-12-10T14:45:28;41.50;;;24.20;;
11709;SDS011;5911;51.036;6.972;2022-12-10T14:48:05;36.30;;;22.83;;
11709;SDS011;5911;51.036;6.972;2022-12-10T14:50:35;41.07;;;23.30;;
11709;SDS011;5911;51.036;6.972;2022-12-10T14:53:08;44.03;;;25.70;;
11709;SDS011;5911;51.036;6.972;2022-12-10T14:55:40;41.10;;;24.20;;
11709;SDS011;5911;51.036;6.972;2022-12-10T14:58:10;39.27;;;24.07;;
11709;SDS011;5911;51.036;6.972;2022-12-10T15:00:46;40.43;;;24.73;;
11709;SDS011;5911;51.036;6.972;2022-12-10T15:03:18;44.67;;;25.67;;
11709;SDS011;5911;51.036;6.972;2022-12-10T15:05:53;43.83;;;24.93;;
11709;SDS011;5911;51.036;6.972;2022-12-10T15:08:22;41.80;;;24.90;;
11709;SDS011;5911;51.036;6.972;2022-12-10T15:10:54;42.10;;;25.37;;
11709;SDS011;5911;51.036;6.972;2022-12-10T15:13:26;45.20;;;25.53;;
11709;SDS011;5911;51.036;6.972;2022-12-10T15:16:01;41.73;;;26.30;;